Terminal Aerodrome Forecast
Issued by NWS Louisville, KY

Home | Current Version | Previous Version | Text Only | Print | Product List | Glossary On
Versions: 1 2 3 4 5 6 7 8 9 10 11 12 13
165
FTUS43 KLMK 262320
TAFSDF
TAF
KSDF 262320Z 2700/2806 30008KT P6SM SCT060 BKN150
     FM270400 VRB03KT P6SM VCSH SCT050 BKN110
     FM271100 34005KT P6SM FEW050 SCT150=

USA.gov is the U.S. government's official web portal to all federal, state and local government web resources and services.